Liz Vinik — WDJ7775 — position and weather

sailwx.info

Track history (hours):
 
Tides and Currents Weather Stations Pressure Air Temp Water Temp Dewpoint Dewpoint Depression Visibility Wind Speed Wind Dir Waves Ship Positions

Liz Vinik

Owner: Vinik Marine Services LLC, Keyport, NJ. More information available from US FCC via Universal Licensing System and Coast Guard Vessel Documentation Center.

Last reported at 2018-Feb-18 05:16 UTC. Time now 2018-Feb-23 06:11 UTC.
Position N 40°34' W 074°13'.

Length 32 m; draft 4.6 m.

Type: Tug. MMSI: 366920310.

Date/timePositionNaut miles runAvg speedWind from/ knotsBaromVisibWave heightAir tempDewpointWater temp
2018-Feb-18 05:16N 40°34' W 074°13'2 9.2
2018-Feb-18 05:00N 40°36' W 074°12'4 7.1
2018-Feb-18 04:28N 40°39' W 074°09'3 5.6
2018-Feb-18 04:00N 40°42' W 074°09'0 0.1
2018-Feb-18 03:30N 40°42' W 074°09'0 0.0
2018-Feb-18 03:00N 40°42' W 074°09'0 0.1
2018-Feb-18 02:30N 40°42' W 074°09'1 2.9
2018-Feb-18 02:00N 40°40' W 074°08'2 4.0
2018-Feb-18 01:30N 40°39' W 074°09'2 4.6
2018-Feb-18 01:00N 40°38' W 074°12'2 4.5
2018-Feb-18 00:30N 40°36' W 074°12'3 5.5
2018-Feb-17 23:54N 40°33' W 074°15'1 1.1
2018-Feb-17 23:17N 40°32' W 074°15'0 0.0
2018-Feb-17 23:00N 40°32' W 074°15'0 0.0
2018-Feb-17 22:25N 40°32' W 074°15'0 0.1
2018-Feb-17 16:32N 40°32' W 074°15'1 3.1
2018-Feb-17 16:12N 40°33' W 074°15'2 7.0
2018-Feb-17 15:56N 40°34' W 074°13'1 2.3
2018-Feb-17 15:29N 40°35' W 074°13'3 0.1
2018-Feb-16 03:06N 40°33' W 074°15'1 8.8
2018-Feb-16 02:56N 40°33' W 074°13'3 8.2
2018-Feb-16 02:30N 40°37' W 074°12'3 6.4
2018-Feb-16 02:00N 40°39' W 074°09'1 2.2
2018-Feb-16 01:30N 40°40' W 074°09'1 2.2
2018-Feb-16 01:00N 40°41' W 074°09'0 0.1
2018-Feb-16 00:30N 40°41' W 074°09'5 9.3
2018-Feb-16 00:00N 40°37' W 074°12'5 1.5
2018-Feb-15 20:35N 40°32' W 074°15'0 0.2
2018-Feb-15 20:28N 40°32' W 074°15'0 0.0
2018-Feb-15 18:09N 40°32' W 074°15'0 0.2
2018-Feb-15 17:53N 40°32' W 074°15'0 0.0
2018-Feb-15 13:27N 40°32' W 074°15'0 0.1
2018-Feb-15 12:42N 40°32' W 074°15'0 0.5
2018-Feb-15 12:30N 40°32' W 074°15'  
2018-Feb-09 02:30N 40°38' W 074°04'0 0.0
2018-Feb-09 02:00N 40°38' W 074°04'1 0.5
2018-Feb-08 23:00N 40°39' W 074°03'  
Track history (hours):
 
Tides and Currents Weather Stations Pressure Air Temp Water Temp Dewpoint Dewpoint Depression Visibility Wind Speed Wind Dir Waves Ship Positions

Liz Vinik

Owner: Vinik Marine Services LLC, Keyport, NJ. More information available from US FCC via Universal Licensing System and Coast Guard Vessel Documentation Center.

Last reported at 2018-Feb-18 05:16 UTC. Time now 2018-Feb-23 06:11 UTC.
Position N 40°34' W 074°13'.

Length 32 m; draft 4.6 m.

Type: Tug. MMSI: 366920310.

Date/timePositionNaut miles runAvg speedWind from/ knotsBaromVisibWave heightAir tempDewpointWater temp
2018-Feb-18 05:16N 40°34' W 074°13'2 9.2
2018-Feb-18 05:00N 40°36' W 074°12'4 7.1
2018-Feb-18 04:28N 40°39' W 074°09'3 5.6
2018-Feb-18 04:00N 40°42' W 074°09'0 0.1
2018-Feb-18 03:30N 40°42' W 074°09'0 0.0
2018-Feb-18 03:00N 40°42' W 074°09'0 0.1
2018-Feb-18 02:30N 40°42' W 074°09'1 2.9
2018-Feb-18 02:00N 40°40' W 074°08'2 4.0
2018-Feb-18 01:30N 40°39' W 074°09'2 4.6
2018-Feb-18 01:00N 40°38' W 074°12'2 4.5
2018-Feb-18 00:30N 40°36' W 074°12'3 5.5
2018-Feb-17 23:54N 40°33' W 074°15'1 1.1
2018-Feb-17 23:17N 40°32' W 074°15'0 0.0
2018-Feb-17 23:00N 40°32' W 074°15'0 0.0
2018-Feb-17 22:25N 40°32' W 074°15'0 0.1
2018-Feb-17 16:32N 40°32' W 074°15'1 3.1
2018-Feb-17 16:12N 40°33' W 074°15'2 7.0
2018-Feb-17 15:56N 40°34' W 074°13'1 2.3
2018-Feb-17 15:29N 40°35' W 074°13'3 0.1
2018-Feb-16 03:06N 40°33' W 074°15'1 8.8
2018-Feb-16 02:56N 40°33' W 074°13'3 8.2
2018-Feb-16 02:30N 40°37' W 074°12'3 6.4
2018-Feb-16 02:00N 40°39' W 074°09'1 2.2
2018-Feb-16 01:30N 40°40' W 074°09'1 2.2
2018-Feb-16 01:00N 40°41' W 074°09'0 0.1
2018-Feb-16 00:30N 40°41' W 074°09'5 9.3
2018-Feb-16 00:00N 40°37' W 074°12'5 1.5
2018-Feb-15 20:35N 40°32' W 074°15'0 0.2
2018-Feb-15 20:28N 40°32' W 074°15'0 0.0
2018-Feb-15 18:09N 40°32' W 074°15'0 0.2
2018-Feb-15 17:53N 40°32' W 074°15'0 0.0
2018-Feb-15 13:27N 40°32' W 074°15'0 0.1
2018-Feb-15 12:42N 40°32' W 074°15'0 0.5
2018-Feb-15 12:30N 40°32' W 074°15'  
2018-Feb-09 02:30N 40°38' W 074°04'0 0.0
2018-Feb-09 02:00N 40°38' W 074°04'1 0.5
2018-Feb-08 23:00N 40°39' W 074°03'  

Dump ship's entire track history